Bookmark and Share
Track history (hours):
 

10chiemaru

Last reported at 2014-Apr-20 02:33 UTC. Time now 2014-Apr-20 03:10 UTC.
Position N 35°31' E 139°59'.

Length 72 m; draft 5.2 m.

Type: Ship. MMSI: 431000147.

NotesDate/timePositionNaut miles runAvg speedWind from/ knotsBaromVisibWave heightAir tempDewpointWater temp
2014-Apr-20 02:33N 35°31' E 139°59'3 3.3
2014-Apr-20 01:33N 35°28' E 140°01'0 0.0
2014-Apr-20 00:33N 35°28' E 140°01'0 0.0
2014-Apr-19 23:33N 35°28' E 140°01'0 0.0
2014-Apr-19 22:33N 35°28' E 140°01'2 2.0
2014-Apr-19 21:33N 35°30' E 139°59'1110.8
2014-Apr-19 20:33N 35°41' E 139°59'0 0.2
2014-Apr-19 19:33N 35°41' E 139°59'0 0.0
2014-Apr-19 18:33N 35°41' E 139°59'0 0.0
2014-Apr-19 17:33N 35°41' E 139°59'0 0.0
2014-Apr-19 16:33N 35°41' E 139°59'0 0.0
2014-Apr-19 15:33N 35°41' E 139°59'0 0.0
2014-Apr-19 14:32N 35°41' E 139°59'0 0.0
2014-Apr-19 13:32N 35°41' E 139°59'0 0.0
2014-Apr-19 12:34N 35°41' E 139°59'0 0.0
2014-Apr-19 11:33N 35°41' E 139°59'0 0.0
2014-Apr-19 10:33N 35°41' E 139°59'0 0.0
2014-Apr-19 09:33N 35°41' E 139°59'0 0.0
2014-Apr-19 08:33N 35°41' E 139°59'0 0.0
2014-Apr-19 07:33N 35°41' E 139°59'1 1.3
2014-Apr-19 06:33N 35°39' E 139°59'5 5.4
2014-Apr-19 05:33N 35°36' E 139°55'0 0.0
2014-Apr-19 04:33N 35°35' E 139°55'4 4.3
2014-Apr-19 03:33N 35°39' E 139°58'2 2.4
2014-Apr-19 02:33N 35°41' E 139°56'0 0.0
2014-Apr-19 01:33N 35°41' E 139°56'0 0.0
2014-Apr-19 00:33N 35°41' E 139°56'0 0.0
2014-Apr-18 23:33N 35°41' E 139°56'0 0.0
2014-Apr-18 22:33N 35°41' E 139°56'4 4.2
2014-Apr-18 21:33N 35°36' E 139°57'2 2.5
2014-Apr-18 20:33N 35°35' E 139°55'0 0.0
2014-Apr-18 19:33N 35°35' E 139°55'0 0.0
2014-Apr-18 18:33N 35°35' E 139°55'0 0.0
2014-Apr-18 17:33N 35°35' E 139°55'0 0.0
2014-Apr-18 16:33N 35°35' E 139°55'0 0.0
2014-Apr-18 15:33N 35°35' E 139°55'0 0.0
2014-Apr-18 14:33N 35°35' E 139°55'0 0.0
2014-Apr-18 13:33N 35°35' E 139°55'0 0.0
2014-Apr-18 12:33N 35°35' E 139°55'0 0.0
2014-Apr-18 11:33N 35°35' E 139°55'0 0.0
2014-Apr-18 10:33N 35°35' E 139°55'0 0.0
2014-Apr-18 09:33N 35°35' E 139°55'0 0.0
2014-Apr-18 08:33N 35°35' E 139°55'0 0.0
2014-Apr-18 07:33N 35°35' E 139°55'0 0.1
2014-Apr-18 06:33N 35°35' E 139°55'8 8.1
2014-Apr-18 05:34N 35°29' E 139°48'8 7.9
2014-Apr-18 04:33N 35°24' E 139°40'0 0.0
2014-Apr-18 03:33N 35°24' E 139°40'0 0.0
2014-Apr-18 02:33N 35°24' E 139°40'0 0.0
2014-Apr-18 01:33N 35°24' E 139°40'3 2.9
2014-Apr-18 00:33N 35°23' E 139°42'1 1.1
2014-Apr-17 23:33N 35°23' E 139°44'0 0.0
2014-Apr-17 22:33N 35°23' E 139°44'0 0.0
2014-Apr-17 21:33N 35°23' E 139°44'0 0.0
2014-Apr-17 20:33N 35°23' E 139°44'0 0.1
2014-Apr-17 19:33N 35°23' E 139°44'0 0.0
2014-Apr-17 18:34N 35°23' E 139°44'0 0.0
2014-Apr-17 17:33N 35°23' E 139°44'0 0.0
2014-Apr-17 16:33N 35°23' E 139°44'0 0.1
2014-Apr-17 15:34N 35°23' E 139°44'0 0.0
2014-Apr-17 14:33N 35°23' E 139°44'0 0.0
2014-Apr-17 13:33N 35°23' E 139°44'0 0.0
2014-Apr-17 12:33N 35°23' E 139°44'0 0.0
2014-Apr-17 11:34N 35°23' E 139°44'3 2.6
2014-Apr-17 10:34N 35°23' E 139°41'2 1.6
2014-Apr-17 09:34N 35°25' E 139°39'0 0.0
2014-Apr-17 08:33N 35°25' E 139°39'0 0.0
2014-Apr-17 07:33N 35°25' E 139°39'4 3.7
2014-Apr-17 06:34N 35°23' E 139°44'0 0.2
2014-Apr-17 05:33N 35°23' E 139°44'2 2.2
2014-Apr-17 04:33N 35°25' E 139°46'6 6.5
2014-Apr-17 03:34N 35°31' E 139°46'0 0.0
2014-Apr-17 02:34N 35°31' E 139°46'0 0.0
2014-Apr-17 01:33N 35°31' E 139°46'0 0.0
2014-Apr-17 00:33N 35°31' E 139°46'0 0.0
2014-Apr-16 23:34N 35°31' E 139°46'0 0.0
2014-Apr-16 22:33N 35°31' E 139°46'3 3.1
2014-Apr-16 21:34N 35°28' E 139°48'0 0.0
2014-Apr-16 20:33N 35°28' E 139°48'0 0.0
2014-Apr-16 19:33N 35°28' E 139°48'0 0.0
2014-Apr-16 18:33N 35°28' E 139°48'0 0.0
2014-Apr-16 17:33N 35°28' E 139°48'0 0.0
2014-Apr-16 16:33N 35°28' E 139°48'0 0.0
2014-Apr-16 15:34N 35°28' E 139°48'0 0.0
2014-Apr-16 14:33N 35°28' E 139°48'0 0.0
2014-Apr-16 13:33N 35°28' E 139°48'0 0.0
2014-Apr-16 12:33N 35°28' E 139°48'0 0.1
2014-Apr-16 11:33N 35°28' E 139°48'7 7.0
2014-Apr-16 10:31N 35°22' E 139°45'1111.6
2014-Apr-16 09:33N 35°10' E 139°46'1312.6
2014-Apr-16 08:32N 35°00' E 139°37'  
2014-Apr-13 17:11N 34°49' E 139°11'1012.4
2014-Apr-13 16:24N 34°55' E 139°20'1012.2
2014-Apr-13 15:33N 35°01' E 139°31'1212.2
2014-Apr-13 14:33N 35°08' E 139°43'1111.1
2014-Apr-13 13:33N 35°19' E 139°43'1010.4
2014-Apr-13 12:33N 35°28' E 139°49'1111.2
2014-Apr-13 11:33N 35°31' E 140°02'0 0.4
2014-Apr-13 10:33N 35°31' E 140°03'0 0.0
2014-Apr-13 09:33N 35°31' E 140°03'0 0.0
2014-Apr-13 08:33N 35°31' E 140°03'0 0.0
2014-Apr-13 07:33N 35°31' E 140°03'0 0.0
2014-Apr-13 06:33N 35°31' E 140°03'0 0.0
2014-Apr-13 05:33N 35°31' E 140°03'0 0.0
2014-Apr-13 04:33N 35°31' E 140°03'0 0.0
2014-Apr-13 03:33N 35°31' E 140°03'0 0.0
2014-Apr-13 02:33N 35°31' E 140°03'0 0.0
2014-Apr-13 01:33N 35°31' E 140°03'2 2.3
2014-Apr-13 00:33N 35°31' E 139°60'5 5.3
2014-Apr-12 23:33N 35°28' E 139°54'0 0.0
2014-Apr-12 22:33N 35°28' E 139°54'0 0.0
2014-Apr-12 21:33N 35°28' E 139°54'0 0.0
2014-Apr-12 20:33N 35°28' E 139°54'0 0.0
2014-Apr-12 19:33N 35°28' E 139°54'0 0.0
2014-Apr-12 18:33N 35°28' E 139°54'0 0.0
2014-Apr-12 17:33N 35°28' E 139°54'0 0.0
2014-Apr-12 16:33N 35°28' E 139°55'0 0.0
2014-Apr-12 15:33N 35°28' E 139°55'0 0.0
2014-Apr-12 14:33N 35°28' E 139°55'0 0.0
2014-Apr-12 13:33N 35°28' E 139°54'8 8.3
2014-Apr-12 12:33N 35°24' E 139°46'1111.1
2014-Apr-12 11:33N 35°13' E 139°47'1212.3
2014-Apr-12 10:33N 35°02' E 139°40'  
2014-Apr-10 04:33N 34°05' E 134°60'1413.6
2014-Apr-10 03:30N 34°19' E 135°00'  

Dump ship's entire track history

sailing weather and tide predictions

10chiemaru — JD2376 — position and weather